sensor_id;sensor_type;location;lat;lon;timestamp;temperature;humidity
32600;DHT22;19277;51.778;7.912;2022-08-21T00:01:05;21.10;81.00
32600;DHT22;19277;51.778;7.912;2022-08-21T00:03:32;21.10;81.20
32600;DHT22;19277;51.778;7.912;2022-08-21T00:05:57;21.00;81.40
32600;DHT22;19277;51.778;7.912;2022-08-21T00:08:23;21.00;81.30
32600;DHT22;19277;51.778;7.912;2022-08-21T00:10:49;20.90;81.40
32600;DHT22;19277;51.778;7.912;2022-08-21T00:13:17;20.90;81.80
32600;DHT22;19277;51.778;7.912;2022-08-21T00:15:43;20.70;81.50
32600;DHT22;19277;51.778;7.912;2022-08-21T00:18:09;20.70;83.20
32600;DHT22;19277;51.778;7.912;2022-08-21T00:20:36;20.90;82.50
32600;DHT22;19277;51.778;7.912;2022-08-21T00:23:02;21.30;81.20
32600;DHT22;19277;51.778;7.912;2022-08-21T00:25:28;21.70;80.10
32600;DHT22;19277;51.778;7.912;2022-08-21T00:27:54;22.00;78.90
32600;DHT22;19277;51.778;7.912;2022-08-21T00:30:21;22.20;78.40
32600;DHT22;19277;51.778;7.912;2022-08-21T00:32:47;22.40;77.30
32600;DHT22;19277;51.778;7.912;2022-08-21T00:35:15;22.60;76.90
32600;DHT22;19277;51.778;7.912;2022-08-21T00:37:41;22.70;76.40
32600;DHT22;19277;51.778;7.912;2022-08-21T00:40:11;22.80;76.10
32600;DHT22;19277;51.778;7.912;2022-08-21T00:42:37;22.80;75.80
32600;DHT22;19277;51.778;7.912;2022-08-21T00:45:04;22.90;75.50
32600;DHT22;19277;51.778;7.912;2022-08-21T00:47:30;23.00;75.10
32600;DHT22;19277;51.778;7.912;2022-08-21T00:49:55;23.00;74.90
32600;DHT22;19277;51.778;7.912;2022-08-21T00:52:26;23.00;75.10
32600;DHT22;19277;51.778;7.912;2022-08-21T00:54:54;23.00;74.90
32600;DHT22;19277;51.778;7.912;2022-08-21T00:57:26;23.00;75.20
32600;DHT22;19277;51.778;7.912;2022-08-21T00:59:56;23.10;75.80
32600;DHT22;19277;51.778;7.912;2022-08-21T01:02:22;23.10;74.90
32600;DHT22;19277;51.778;7.912;2022-08-21T01:04:48;23.10;74.70
32600;DHT22;19277;51.778;7.912;2022-08-21T01:07:15;23.10;75.30
32600;DHT22;19277;51.778;7.912;2022-08-21T01:09:41;23.20;75.10
32600;DHT22;19277;51.778;7.912;2022-08-21T01:12:07;23.20;75.10
32600;DHT22;19277;51.778;7.912;2022-08-21T01:14:34;23.20;75.00
32600;DHT22;19277;51.778;7.912;2022-08-21T01:17:01;23.20;75.20
32600;DHT22;19277;51.778;7.912;2022-08-21T01:19:29;23.20;75.20
32600;DHT22;19277;51.778;7.912;2022-08-21T01:21:55;23.20;75.20
32600;DHT22;19277;51.778;7.912;2022-08-21T01:24:20;23.20;75.20
32600;DHT22;19277;51.778;7.912;2022-08-21T01:26:48;23.20;75.30
32600;DHT22;19277;51.778;7.912;2022-08-21T01:31:48;23.20;75.40
32600;DHT22;19277;51.778;7.912;2022-08-21T01:34:14;23.20;75.30
32600;DHT22;19277;51.778;7.912;2022-08-21T01:36:41;23.20;75.50
32600;DHT22;19277;51.778;7.912;2022-08-21T01:39:07;23.20;76.10
32600;DHT22;19277;51.778;7.912;2022-08-21T01:41:33;23.20;75.40
32600;DHT22;19277;51.778;7.912;2022-08-21T01:43:59;23.20;75.90
32600;DHT22;19277;51.778;7.912;2022-08-21T01:46:24;23.30;75.30
32600;DHT22;19277;51.778;7.912;2022-08-21T01:48:50;23.30;76.50
32600;DHT22;19277;51.778;7.912;2022-08-21T01:51:15;23.30;75.60
32600;DHT22;19277;51.778;7.912;2022-08-21T01:53:41;23.30;75.70
32600;DHT22;19277;51.778;7.912;2022-08-21T01:56:09;23.30;76.30
32600;DHT22;19277;51.778;7.912;2022-08-21T01:58:35;23.30;75.90
32600;DHT22;19277;51.778;7.912;2022-08-21T02:01:02;23.40;75.70
32600;DHT22;19277;51.778;7.912;2022-08-21T02:03:29;23.40;75.70
32600;DHT22;19277;51.778;7.912;2022-08-21T02:05:55;23.40;75.80
32600;DHT22;19277;51.778;7.912;2022-08-21T02:08:21;23.50;75.10
32600;DHT22;19277;51.778;7.912;2022-08-21T02:10:49;23.50;75.10
32600;DHT22;19277;51.778;7.912;2022-08-21T02:13:16;23.50;74.90
32600;DHT22;19277;51.778;7.912;2022-08-21T02:15:41;23.50;74.60
32600;DHT22;19277;51.778;7.912;2022-08-21T02:18:07;23.60;74.90
32600;DHT22;19277;51.778;7.912;2022-08-21T02:20:36;23.60;74.70
32600;DHT22;19277;51.778;7.912;2022-08-21T02:23:03;23.60;74.90
32600;DHT22;19277;51.778;7.912;2022-08-21T02:25:29;23.60;74.70
32600;DHT22;19277;51.778;7.912;2022-08-21T02:27:56;23.60;74.40
32600;DHT22;19277;51.778;7.912;2022-08-21T02:30:32;23.70;74.40
32600;DHT22;19277;51.778;7.912;2022-08-21T02:32:58;23.60;74.40
32600;DHT22;19277;51.778;7.912;2022-08-21T02:35:25;23.70;74.60
32600;DHT22;19277;51.778;7.912;2022-08-21T02:38:04;23.70;74.60
32600;DHT22;19277;51.778;7.912;2022-08-21T02:40:32;23.70;74.40
32600;DHT22;19277;51.778;7.912;2022-08-21T02:42:59;23.70;74.60
32600;DHT22;19277;51.778;7.912;2022-08-21T02:45:26;23.70;74.50
32600;DHT22;19277;51.778;7.912;2022-08-21T02:47:59;23.70;74.60
32600;DHT22;19277;51.778;7.912;2022-08-21T02:50:32;23.70;74.40
32600;DHT22;19277;51.778;7.912;2022-08-21T02:52:58;23.70;74.40
32600;DHT22;19277;51.778;7.912;2022-08-21T02:55:26;23.70;74.50
32600;DHT22;19277;51.778;7.912;2022-08-21T02:57:53;23.70;74.50
32600;DHT22;19277;51.778;7.912;2022-08-21T03:00:21;23.70;74.80
32600;DHT22;19277;51.778;7.912;2022-08-21T03:02:47;23.70;74.80
32600;DHT22;19277;51.778;7.912;2022-08-21T03:05:14;23.60;74.90
32600;DHT22;19277;51.778;7.912;2022-08-21T03:07:41;23.60;74.70
32600;DHT22;19277;51.778;7.912;2022-08-21T03:10:08;23.60;74.90
32600;DHT22;19277;51.778;7.912;2022-08-21T03:12:34;23.60;75.00
32600;DHT22;19277;51.778;7.912;2022-08-21T03:15:03;23.60;75.20
32600;DHT22;19277;51.778;7.912;2022-08-21T03:17:29;23.60;75.20
32600;DHT22;19277;51.778;7.912;2022-08-21T03:19:54;23.60;75.10
32600;DHT22;19277;51.778;7.912;2022-08-21T03:22:20;23.50;75.10
32600;DHT22;19277;51.778;7.912;2022-08-21T03:24:46;23.50;75.30
32600;DHT22;19277;51.778;7.912;2022-08-21T03:27:11;23.50;75.20
32600;DHT22;19277;51.778;7.912;2022-08-21T03:29:40;23.50;75.00
32600;DHT22;19277;51.778;7.912;2022-08-21T03:32:06;23.50;75.10
32600;DHT22;19277;51.778;7.912;2022-08-21T03:34:38;23.50;74.90
32600;DHT22;19277;51.778;7.912;2022-08-21T03:37:05;23.50;75.00
32600;DHT22;19277;51.778;7.912;2022-08-21T03:39:31;23.40;75.20
32600;DHT22;19277;51.778;7.912;2022-08-21T03:41:57;23.40;75.10
32600;DHT22;19277;51.778;7.912;2022-08-21T03:44:23;23.40;75.10
32600;DHT22;19277;51.778;7.912;2022-08-21T03:46:48;23.40;75.50
32600;DHT22;19277;51.778;7.912;2022-08-21T03:49:14;23.40;75.80
32600;DHT22;19277;51.778;7.912;2022-08-21T03:51:40;23.40;75.50
32600;DHT22;19277;51.778;7.912;2022-08-21T03:54:05;23.40;76.60
32600;DHT22;19277;51.778;7.912;2022-08-21T03:56:31;23.40;76.50
32600;DHT22;19277;51.778;7.912;2022-08-21T03:58:57;23.50;75.90
32600;DHT22;19277;51.778;7.912;2022-08-21T04:01:23;23.50;75.00
32600;DHT22;19277;51.778;7.912;2022-08-21T04:03:49;23.50;75.10
32600;DHT22;19277;51.778;7.912;2022-08-21T04:06:14;23.40;75.20
32600;DHT22;19277;51.778;7.912;2022-08-21T04:08:40;23.40;75.70
32600;DHT22;19277;51.778;7.912;2022-08-21T04:11:08;23.40;75.70
32600;DHT22;19277;51.778;7.912;2022-08-21T04:13:35;23.30;76.00
32600;DHT22;19277;51.778;7.912;2022-08-21T04:16:01;23.40;76.20
32600;DHT22;19277;51.778;7.912;2022-08-21T04:18:27;23.30;76.40
32600;DHT22;19277;51.778;7.912;2022-08-21T04:20:54;23.30;76.30
32600;DHT22;19277;51.778;7.912;2022-08-21T04:23:22;23.30;76.20
32600;DHT22;19277;51.778;7.912;2022-08-21T04:25:47;23.20;76.20
32600;DHT22;19277;51.778;7.912;2022-08-21T04:28:13;23.20;76.20
32600;DHT22;19277;51.778;7.912;2022-08-21T04:30:39;23.20;76.20
32600;DHT22;19277;51.778;7.912;2022-08-21T04:33:04;23.10;76.30
32600;DHT22;19277;51.778;7.912;2022-08-21T04:35:30;23.10;76.10
32600;DHT22;19277;51.778;7.912;2022-08-21T04:37:57;23.00;76.00
32600;DHT22;19277;51.778;7.912;2022-08-21T04:40:25;23.00;76.60
32600;DHT22;19277;51.778;7.912;2022-08-21T04:42:55;22.90;76.90
32600;DHT22;19277;51.778;7.912;2022-08-21T04:45:25;23.00;77.00
32600;DHT22;19277;51.778;7.912;2022-08-21T04:47:52;23.00;76.70
32600;DHT22;19277;51.778;7.912;2022-08-21T04:50:18;23.00;76.40
32600;DHT22;19277;51.778;7.912;2022-08-21T04:52:44;23.00;76.60
32600;DHT22;19277;51.778;7.912;2022-08-21T04:55:11;22.90;76.40
32600;DHT22;19277;51.778;7.912;2022-08-21T04:57:38;22.90;76.40
32600;DHT22;19277;51.778;7.912;2022-08-21T05:00:05;23.00;76.80
32600;DHT22;19277;51.778;7.912;2022-08-21T05:02:31;23.00;76.60
32600;DHT22;19277;51.778;7.912;2022-08-21T05:04:59;23.00;76.30
32600;DHT22;19277;51.778;7.912;2022-08-21T05:07:27;23.10;76.40
32600;DHT22;19277;51.778;7.912;2022-08-21T05:09:55;23.10;76.20
32600;DHT22;19277;51.778;7.912;2022-08-21T05:12:21;23.10;76.10
32600;DHT22;19277;51.778;7.912;2022-08-21T05:14:47;23.20;76.10
32600;DHT22;19277;51.778;7.912;2022-08-21T05:17:13;23.20;76.10
32600;DHT22;19277;51.778;7.912;2022-08-21T05:19:39;23.20;75.80
32600;DHT22;19277;51.778;7.912;2022-08-21T05:22:05;23.30;75.70
32600;DHT22;19277;51.778;7.912;2022-08-21T05:24:32;23.30;75.50
32600;DHT22;19277;51.778;7.912;2022-08-21T05:26:58;23.40;75.60
32600;DHT22;19277;51.778;7.912;2022-08-21T05:29:24;23.40;75.20
32600;DHT22;19277;51.778;7.912;2022-08-21T05:31:49;23.50;75.60
32600;DHT22;19277;51.778;7.912;2022-08-21T05:34:18;23.60;75.10
32600;DHT22;19277;51.778;7.912;2022-08-21T05:36:44;23.70;74.50
32600;DHT22;19277;51.778;7.912;2022-08-21T05:39:10;23.80;74.70
32600;DHT22;19277;51.778;7.912;2022-08-21T05:41:36;23.80;74.10
32600;DHT22;19277;51.778;7.912;2022-08-21T05:44:01;23.90;73.80
32600;DHT22;19277;51.778;7.912;2022-08-21T05:46:27;24.00;73.80
32600;DHT22;19277;51.778;7.912;2022-08-21T05:48:53;24.10;73.60
32600;DHT22;19277;51.778;7.912;2022-08-21T05:51:18;24.10;73.90
32600;DHT22;19277;51.778;7.912;2022-08-21T05:53:44;24.20;73.70
32600;DHT22;19277;51.778;7.912;2022-08-21T05:56:11;24.20;73.20
32600;DHT22;19277;51.778;7.912;2022-08-21T05:58:37;24.30;73.30
32600;DHT22;19277;51.778;7.912;2022-08-21T06:01:03;24.40;73.30
32600;DHT22;19277;51.778;7.912;2022-08-21T06:03:34;24.50;73.00
32600;DHT22;19277;51.778;7.912;2022-08-21T06:06:01;24.50;72.80
32600;DHT22;19277;51.778;7.912;2022-08-21T06:08:27;24.60;72.80
32600;DHT22;19277;51.778;7.912;2022-08-21T06:10:55;24.70;72.50
32600;DHT22;19277;51.778;7.912;2022-08-21T06:13:21;24.70;72.50
32600;DHT22;19277;51.778;7.912;2022-08-21T06:15:47;24.80;72.40
32600;DHT22;19277;51.778;7.912;2022-08-21T06:18:13;24.90;71.90
32600;DHT22;19277;51.778;7.912;2022-08-21T06:20:39;24.90;72.00
32600;DHT22;19277;51.778;7.912;2022-08-21T06:23:05;25.00;71.60
32600;DHT22;19277;51.778;7.912;2022-08-21T06:25:31;25.10;71.10
32600;DHT22;19277;51.778;7.912;2022-08-21T06:28:08;25.20;71.30
32600;DHT22;19277;51.778;7.912;2022-08-21T06:30:36;25.30;71.10
32600;DHT22;19277;51.778;7.912;2022-08-21T06:33:02;25.30;70.70
32600;DHT22;19277;51.778;7.912;2022-08-21T06:35:28;25.40;70.80
32600;DHT22;19277;51.778;7.912;2022-08-21T06:37:55;25.50;70.60
32600;DHT22;19277;51.778;7.912;2022-08-21T06:40:21;25.50;70.60
32600;DHT22;19277;51.778;7.912;2022-08-21T06:42:47;25.60;70.30
32600;DHT22;19277;51.778;7.912;2022-08-21T06:45:13;25.70;70.10
32600;DHT22;19277;51.778;7.912;2022-08-21T06:47:39;25.70;70.20
32600;DHT22;19277;51.778;7.912;2022-08-21T06:50:05;25.70;70.00
32600;DHT22;19277;51.778;7.912;2022-08-21T06:52:34;25.80;70.20
32600;DHT22;19277;51.778;7.912;2022-08-21T06:54:59;25.80;70.10
32600;DHT22;19277;51.778;7.912;2022-08-21T06:57:25;25.90;70.10
32600;DHT22;19277;51.778;7.912;2022-08-21T06:59:51;25.90;70.00
32600;DHT22;19277;51.778;7.912;2022-08-21T07:02:17;26.00;69.80
32600;DHT22;19277;51.778;7.912;2022-08-21T07:04:43;26.00;70.20
32600;DHT22;19277;51.778;7.912;2022-08-21T07:07:09;26.00;70.30
32600;DHT22;19277;51.778;7.912;2022-08-21T07:09:35;26.00;69.60
32600;DHT22;19277;51.778;7.912;2022-08-21T07:12:02;26.10;69.60
32600;DHT22;19277;51.778;7.912;2022-08-21T07:14:28;26.10;69.50
32600;DHT22;19277;51.778;7.912;2022-08-21T07:16:53;26.10;69.90
32600;DHT22;19277;51.778;7.912;2022-08-21T07:19:19;26.10;69.80
32600;DHT22;19277;51.778;7.912;2022-08-21T07:21:45;26.20;69.90
32600;DHT22;19277;51.778;7.912;2022-08-21T07:24:12;26.10;69.70
32600;DHT22;19277;51.778;7.912;2022-08-21T07:26:38;26.10;69.80
32600;DHT22;19277;51.778;7.912;2022-08-21T07:29:03;26.20;70.10
32600;DHT22;19277;51.778;7.912;2022-08-21T07:31:29;26.20;70.00
32600;DHT22;19277;51.778;7.912;2022-08-21T07:33:55;26.20;69.80
32600;DHT22;19277;51.778;7.912;2022-08-21T07:36:21;26.20;70.20
32600;DHT22;19277;51.778;7.912;2022-08-21T07:38:47;26.20;69.80
32600;DHT22;19277;51.778;7.912;2022-08-21T07:41:17;26.20;69.80
32600;DHT22;19277;51.778;7.912;2022-08-21T07:43:42;26.20;70.40
32600;DHT22;19277;51.778;7.912;2022-08-21T07:46:09;26.20;70.40
32600;DHT22;19277;51.778;7.912;2022-08-21T07:48:35;26.20;70.50
32600;DHT22;19277;51.778;7.912;2022-08-21T07:51:04;26.20;70.50
32600;DHT22;19277;51.778;7.912;2022-08-21T07:53:30;26.20;70.50
32600;DHT22;19277;51.778;7.912;2022-08-21T07:55:59;26.20;70.30
32600;DHT22;19277;51.778;7.912;2022-08-21T07:58:25;26.20;70.10
32600;DHT22;19277;51.778;7.912;2022-08-21T08:00:50;26.20;70.50
32600;DHT22;19277;51.778;7.912;2022-08-21T08:03:17;26.20;70.10
32600;DHT22;19277;51.778;7.912;2022-08-21T08:05:42;26.20;70.10
32600;DHT22;19277;51.778;7.912;2022-08-21T08:08:08;26.20;70.10
32600;DHT22;19277;51.778;7.912;2022-08-21T08:10:34;26.20;70.10
32600;DHT22;19277;51.778;7.912;2022-08-21T08:13:01;26.20;70.00
32600;DHT22;19277;51.778;7.912;2022-08-21T08:15:27;26.20;69.90
32600;DHT22;19277;51.778;7.912;2022-08-21T08:17:54;26.20;70.20
32600;DHT22;19277;51.778;7.912;2022-08-21T08:20:21;26.20;70.00
32600;DHT22;19277;51.778;7.912;2022-08-21T08:22:48;26.20;70.40
32600;DHT22;19277;51.778;7.912;2022-08-21T08:25:14;26.20;70.50
32600;DHT22;19277;51.778;7.912;2022-08-21T08:27:41;26.20;70.50
32600;DHT22;19277;51.778;7.912;2022-08-21T08:30:08;26.20;70.60
32600;DHT22;19277;51.778;7.912;2022-08-21T08:32:34;26.20;70.20
32600;DHT22;19277;51.778;7.912;2022-08-21T08:35:00;26.20;70.00
32600;DHT22;19277;51.778;7.912;2022-08-21T08:37:26;26.20;70.00
32600;DHT22;19277;51.778;7.912;2022-08-21T08:39:51;26.20;69.80
32600;DHT22;19277;51.778;7.912;2022-08-21T08:42:25;26.20;69.80
32600;DHT22;19277;51.778;7.912;2022-08-21T08:45:09;26.20;69.70
32600;DHT22;19277;51.778;7.912;2022-08-21T08:47:40;26.20;69.20
32600;DHT22;19277;51.778;7.912;2022-08-21T08:50:47;26.20;69.40
32600;DHT22;19277;51.778;7.912;2022-08-21T08:53:19;26.30;69.00
32600;DHT22;19277;51.778;7.912;2022-08-21T08:55:48;26.30;69.00
32600;DHT22;19277;51.778;7.912;2022-08-21T08:58:26;26.30;69.20
32600;DHT22;19277;51.778;7.912;2022-08-21T09:00:54;26.30;68.90
32600;DHT22;19277;51.778;7.912;2022-08-21T09:03:24;26.30;69.40
32600;DHT22;19277;51.778;7.912;2022-08-21T09:09:19;26.30;68.90
32600;DHT22;19277;51.778;7.912;2022-08-21T09:12:02;26.30;68.50
32600;DHT22;19277;51.778;7.912;2022-08-21T09:23:03;26.40;68.30
32600;DHT22;19277;51.778;7.912;2022-08-21T09:25:24;26.30;68.40
32600;DHT22;19277;51.778;7.912;2022-08-21T09:27:50;26.40;68.50
32600;DHT22;19277;51.778;7.912;2022-08-21T09:30:17;26.40;68.70
32600;DHT22;19277;51.778;7.912;2022-08-21T09:32:43;26.30;68.80
32600;DHT22;19277;51.778;7.912;2022-08-21T09:35:18;26.30;68.70
32600;DHT22;19277;51.778;7.912;2022-08-21T09:40:35;26.30;69.50
32600;DHT22;19277;51.778;7.912;2022-08-21T09:43:05;26.30;69.30
32600;DHT22;19277;51.778;7.912;2022-08-21T09:45:33;26.40;69.10
32600;DHT22;19277;51.778;7.912;2022-08-21T09:48:14;26.30;68.70
32600;DHT22;19277;51.778;7.912;2022-08-21T09:50:41;26.30;68.80
32600;DHT22;19277;51.778;7.912;2022-08-21T09:53:51;26.40;69.10
32600;DHT22;19277;51.778;7.912;2022-08-21T10:01:53;26.40;68.90
32600;DHT22;19277;51.778;7.912;2022-08-21T10:04:27;26.40;68.70
32600;DHT22;19277;51.778;7.912;2022-08-21T10:06:54;26.40;68.70
32600;DHT22;19277;51.778;7.912;2022-08-21T10:09:21;26.40;68.70
32600;DHT22;19277;51.778;7.912;2022-08-21T10:12:00;26.40;68.30
32600;DHT22;19277;51.778;7.912;2022-08-21T10:14:47;26.30;68.20
32600;DHT22;19277;51.778;7.912;2022-08-21T10:17:27;26.30;68.30
32600;DHT22;19277;51.778;7.912;2022-08-21T10:20:11;26.30;68.00
32600;DHT22;19277;51.778;7.912;2022-08-21T10:25:40;26.30;67.70
32600;DHT22;19277;51.778;7.912;2022-08-21T10:36:18;26.40;67.40
32600;DHT22;19277;51.778;7.912;2022-08-21T10:39:21;26.40;67.50
32600;DHT22;19277;51.778;7.912;2022-08-21T10:42:12;26.40;67.30
32600;DHT22;19277;51.778;7.912;2022-08-21T10:47:40;26.40;67.40
32600;DHT22;19277;51.778;7.912;2022-08-21T10:56:05;26.40;67.50
32600;DHT22;19277;51.778;7.912;2022-08-21T10:58:51;26.40;66.90
32600;DHT22;19277;51.778;7.912;2022-08-21T11:01:26;26.40;67.30
32600;DHT22;19277;51.778;7.912;2022-08-21T11:04:21;26.40;67.20
32600;DHT22;19277;51.778;7.912;2022-08-21T11:06:59;26.40;66.90
32600;DHT22;19277;51.778;7.912;2022-08-21T11:09:26;26.40;67.20
32600;DHT22;19277;51.778;7.912;2022-08-21T11:11:57;26.40;66.90
32600;DHT22;19277;51.778;7.912;2022-08-21T11:17:43;26.40;67.10
32600;DHT22;19277;51.778;7.912;2022-08-21T11:20:15;26.40;67.10
32600;DHT22;19277;51.778;7.912;2022-08-21T11:23:03;26.40;67.00
32600;DHT22;19277;51.778;7.912;2022-08-21T11:25:31;26.40;67.20
32600;DHT22;19277;51.778;7.912;2022-08-21T11:28:06;26.40;67.40
32600;DHT22;19277;51.778;7.912;2022-08-21T11:30:52;26.40;67.40
32600;DHT22;19277;51.778;7.912;2022-08-21T11:44:38;26.50;66.80
32600;DHT22;19277;51.778;7.912;2022-08-21T11:50:12;26.50;67.10
32600;DHT22;19277;51.778;7.912;2022-08-21T11:52:47;26.50;66.70
32600;DHT22;19277;51.778;7.912;2022-08-21T11:59:02;26.50;66.60
32600;DHT22;19277;51.778;7.912;2022-08-21T12:00:56;26.50;66.70
32600;DHT22;19277;51.778;7.912;2022-08-21T12:03:29;26.50;67.10
32600;DHT22;19277;51.778;7.912;2022-08-21T12:06:12;26.50;67.00
32600;DHT22;19277;51.778;7.912;2022-08-21T12:08:41;26.50;66.70
32600;DHT22;19277;51.778;7.912;2022-08-21T12:13:51;26.50;66.70
32600;DHT22;19277;51.778;7.912;2022-08-21T12:16:30;26.50;67.30
32600;DHT22;19277;51.778;7.912;2022-08-21T12:21:47;26.50;66.10
32600;DHT22;19277;51.778;7.912;2022-08-21T12:26:57;26.50;66.60
32600;DHT22;19277;51.778;7.912;2022-08-21T12:29:25;26.50;66.60
32600;DHT22;19277;51.778;7.912;2022-08-21T12:31:58;26.50;66.70
32600;DHT22;19277;51.778;7.912;2022-08-21T12:34:30;26.50;66.30
32600;DHT22;19277;51.778;7.912;2022-08-21T12:37:01;26.50;66.50
32600;DHT22;19277;51.778;7.912;2022-08-21T12:39:31;26.50;66.70
32600;DHT22;19277;51.778;7.912;2022-08-21T12:42:11;26.50;66.10
32600;DHT22;19277;51.778;7.912;2022-08-21T12:44:49;26.50;61.90
32600;DHT22;19277;51.778;7.912;2022-08-21T12:47:34;26.60;64.40
32600;DHT22;19277;51.778;7.912;2022-08-21T12:50:06;26.50;64.80
32600;DHT22;19277;51.778;7.912;2022-08-21T12:52:39;26.50;60.30
32600;DHT22;19277;51.778;7.912;2022-08-21T12:55:07;26.60;65.00
32600;DHT22;19277;51.778;7.912;2022-08-21T12:57:36;26.50;65.40
32600;DHT22;19277;51.778;7.912;2022-08-21T13:00:06;26.60;65.10
32600;DHT22;19277;51.778;7.912;2022-08-21T13:02:42;26.50;65.50
32600;DHT22;19277;51.778;7.912;2022-08-21T13:05:14;26.50;65.90
32600;DHT22;19277;51.778;7.912;2022-08-21T13:07:44;26.60;65.20
32600;DHT22;19277;51.778;7.912;2022-08-21T13:10:23;26.50;65.80
32600;DHT22;19277;51.778;7.912;2022-08-21T13:12:49;26.50;64.10
32600;DHT22;19277;51.778;7.912;2022-08-21T13:15:24;26.60;65.40
32600;DHT22;19277;51.778;7.912;2022-08-21T13:17:50;26.60;65.10
32600;DHT22;19277;51.778;7.912;2022-08-21T13:20:23;26.60;61.20
32600;DHT22;19277;51.778;7.912;2022-08-21T13:22:49;26.60;62.20
32600;DHT22;19277;51.778;7.912;2022-08-21T13:25:17;26.60;61.60
32600;DHT22;19277;51.778;7.912;2022-08-21T13:27:56;26.60;63.00
32600;DHT22;19277;51.778;7.912;2022-08-21T13:30:23;26.60;64.70
32600;DHT22;19277;51.778;7.912;2022-08-21T13:32:54;26.60;65.00
32600;DHT22;19277;51.778;7.912;2022-08-21T13:38:16;26.70;63.10
32600;DHT22;19277;51.778;7.912;2022-08-21T13:40:48;26.70;58.40
32600;DHT22;19277;51.778;7.912;2022-08-21T13:43:17;26.70;59.90
32600;DHT22;19277;51.778;7.912;2022-08-21T13:45:48;26.70;63.30
32600;DHT22;19277;51.778;7.912;2022-08-21T13:48:14;26.60;63.80
32600;DHT22;19277;51.778;7.912;2022-08-21T13:50:41;26.60;64.20
32600;DHT22;19277;51.778;7.912;2022-08-21T13:53:19;26.60;62.10
32600;DHT22;19277;51.778;7.912;2022-08-21T13:55:47;26.60;59.70
32600;DHT22;19277;51.778;7.912;2022-08-21T13:58:27;26.60;63.00
32600;DHT22;19277;51.778;7.912;2022-08-21T14:00:55;26.60;64.00
32600;DHT22;19277;51.778;7.912;2022-08-21T14:05:57;26.60;64.40
32600;DHT22;19277;51.778;7.912;2022-08-21T14:08:25;26.60;64.40
32600;DHT22;19277;51.778;7.912;2022-08-21T14:10:52;26.70;61.60
32600;DHT22;19277;51.778;7.912;2022-08-21T14:16:01;26.70;61.80
32600;DHT22;19277;51.778;7.912;2022-08-21T14:18:26;26.70;63.80
32600;DHT22;19277;51.778;7.912;2022-08-21T14:21:04;26.70;58.90
32600;DHT22;19277;51.778;7.912;2022-08-21T14:23:30;26.80;62.80
32600;DHT22;19277;51.778;7.912;2022-08-21T14:26:00;26.80;61.20
32600;DHT22;19277;51.778;7.912;2022-08-21T14:28:30;26.80;60.20
32600;DHT22;19277;51.778;7.912;2022-08-21T14:30:58;26.80;63.30
32600;DHT22;19277;51.778;7.912;2022-08-21T14:33:32;26.80;63.70
32600;DHT22;19277;51.778;7.912;2022-08-21T14:35:58;26.80;63.50
32600;DHT22;19277;51.778;7.912;2022-08-21T14:38:25;26.80;64.10
32600;DHT22;19277;51.778;7.912;2022-08-21T14:40:57;26.80;64.10
32600;DHT22;19277;51.778;7.912;2022-08-21T14:43:26;26.80;60.80
32600;DHT22;19277;51.778;7.912;2022-08-21T14:45:52;26.80;60.10
32600;DHT22;19277;51.778;7.912;2022-08-21T14:48:17;26.80;60.50
32600;DHT22;19277;51.778;7.912;2022-08-21T14:50:43;26.80;62.40
32600;DHT22;19277;51.778;7.912;2022-08-21T14:53:09;26.80;63.20
32600;DHT22;19277;51.778;7.912;2022-08-21T14:55:36;26.80;63.50
32600;DHT22;19277;51.778;7.912;2022-08-21T14:58:22;26.80;63.90
32600;DHT22;19277;51.778;7.912;2022-08-21T15:00:49;26.80;62.70
32600;DHT22;19277;51.778;7.912;2022-08-21T15:03:15;26.90;60.40
32600;DHT22;19277;51.778;7.912;2022-08-21T15:05:40;26.90;57.90
32600;DHT22;19277;51.778;7.912;2022-08-21T15:08:06;26.90;62.30
32600;DHT22;19277;51.778;7.912;2022-08-21T15:10:32;26.90;63.30
32600;DHT22;19277;51.778;7.912;2022-08-21T15:12:59;26.90;62.50
32600;DHT22;19277;51.778;7.912;2022-08-21T15:15:25;26.90;63.60
32600;DHT22;19277;51.778;7.912;2022-08-21T15:17:51;26.80;63.80
32600;DHT22;19277;51.778;7.912;2022-08-21T15:20:16;26.80;61.50
32600;DHT22;19277;51.778;7.912;2022-08-21T15:22:42;26.90;64.00
32600;DHT22;19277;51.778;7.912;2022-08-21T15:25:08;26.90;64.10
32600;DHT22;19277;51.778;7.912;2022-08-21T15:27:34;26.90;64.30
32600;DHT22;19277;51.778;7.912;2022-08-21T15:30:01;26.80;63.70
32600;DHT22;19277;51.778;7.912;2022-08-21T15:32:27;26.90;64.00
32600;DHT22;19277;51.778;7.912;2022-08-21T15:34:55;26.90;64.20
32600;DHT22;19277;51.778;7.912;2022-08-21T15:37:22;26.90;64.10
32600;DHT22;19277;51.778;7.912;2022-08-21T15:39:50;26.90;63.60
32600;DHT22;19277;51.778;7.912;2022-08-21T15:42:16;26.90;63.50
32600;DHT22;19277;51.778;7.912;2022-08-21T15:44:42;26.90;63.80
32600;DHT22;19277;51.778;7.912;2022-08-21T15:47:21;26.90;61.00
32600;DHT22;19277;51.778;7.912;2022-08-21T15:49:47;26.90;62.70
32600;DHT22;19277;51.778;7.912;2022-08-21T15:52:14;26.90;64.10
32600;DHT22;19277;51.778;7.912;2022-08-21T15:54:41;26.90;62.30
32600;DHT22;19277;51.778;7.912;2022-08-21T15:57:06;26.90;62.90
32600;DHT22;19277;51.778;7.912;2022-08-21T15:59:40;26.90;62.90
32600;DHT22;19277;51.778;7.912;2022-08-21T16:02:14;26.90;62.60
32600;DHT22;19277;51.778;7.912;2022-08-21T16:04:40;26.90;62.60
32600;DHT22;19277;51.778;7.912;2022-08-21T16:07:06;26.90;63.00
32600;DHT22;19277;51.778;7.912;2022-08-21T16:09:31;26.90;62.80
32600;DHT22;19277;51.778;7.912;2022-08-21T16:11:59;26.90;63.10
32600;DHT22;19277;51.778;7.912;2022-08-21T16:14:26;26.90;63.30
32600;DHT22;19277;51.778;7.912;2022-08-21T16:16:53;26.90;63.60
32600;DHT22;19277;51.778;7.912;2022-08-21T16:19:19;27.00;63.40
32600;DHT22;19277;51.778;7.912;2022-08-21T16:21:46;26.90;60.10
32600;DHT22;19277;51.778;7.912;2022-08-21T16:24:12;26.90;62.50
32600;DHT22;19277;51.778;7.912;2022-08-21T16:26:37;26.90;62.90
32600;DHT22;19277;51.778;7.912;2022-08-21T16:29:04;26.90;63.00
32600;DHT22;19277;51.778;7.912;2022-08-21T16:31:32;26.90;63.40
32600;DHT22;19277;51.778;7.912;2022-08-21T16:33:58;26.90;62.40
32600;DHT22;19277;51.778;7.912;2022-08-21T16:36:25;27.00;63.10
32600;DHT22;19277;51.778;7.912;2022-08-21T16:38:53;27.00;60.90
32600;DHT22;19277;51.778;7.912;2022-08-21T16:41:20;27.00;63.20
32600;DHT22;19277;51.778;7.912;2022-08-21T16:43:48;27.00;62.70
32600;DHT22;19277;51.778;7.912;2022-08-21T16:46:14;27.00;63.10
32600;DHT22;19277;51.778;7.912;2022-08-21T16:48:42;27.00;63.40
32600;DHT22;19277;51.778;7.912;2022-08-21T16:51:12;27.00;62.40
32600;DHT22;19277;51.778;7.912;2022-08-21T16:53:37;27.00;62.60
32600;DHT22;19277;51.778;7.912;2022-08-21T16:56:04;27.00;62.50
32600;DHT22;19277;51.778;7.912;2022-08-21T16:58:33;27.00;63.90